Terminal Aerodrome Forecast
Issued by NWS

Home | Current Version | Previous Version | Text Only | Print | Product List | Glossary On
Versions: 1 2 3 4 5 6 7 8 9 10 11 12 13 14 15 16 17 18 19 20 21 22 23 24
000
FTUS44 KHGX 292326
TAFSGR
TAF
KSGR 292326Z 3000/3024 08007KT P6SM SCT025 SCT100 BKN250
      TEMPO 3000/3001 VRB15KT SHRA BKN050
     FM300500 02004KT P6SM FEW015 BKN140
      TEMPO 3013/3015 BKN020
     FM301500 05007KT P6SM VCSH SCT020 SCT030 BKN250
     FM302000 06009KT P6SM SCT030 BKN250=

USA.gov is the U.S. government's official web portal to all federal, state and local government web resources and services.